Time;durP1;ratioP1;P1;durP2;ratioP2;P2;SDS_P1;SDS_P2;PMS_P1;PMS_P2;Temp;Humidity;BMP_temperature;BMP_pressure;BME280_temperature;BME280_humidity;BME280_pressure;Samples;Min_cycle;Max_cycle;Signal;HPM_P1;HPM_P2
2022/10/24 00:02:18;;;;;;;7.40;2.47;;;16.80;84.70;;;;;;5014870;28;20056;-66
2022/10/24 00:04:44;;;;;;;10.75;2.55;;;16.80;84.70;;;;;;5015008;28;20022;-66
2022/10/24 00:07:09;;;;;;;6.25;2.88;;;16.70;84.70;;;;;;5013541;28;20104;-66
2022/10/24 00:09:36;;;;;;;8.32;2.40;;;16.70;84.70;;;;;;5015017;28;20439;-66
2022/10/24 00:12:04;;;;;;;8.27;2.63;;;16.70;84.70;;;;;;5013814;28;20057;-66
2022/10/24 00:14:30;;;;;;;7.00;3.00;;;16.70;84.80;;;;;;5014871;28;20022;-66
2022/10/24 00:16:56;;;;;;;7.05;2.58;;;16.70;84.70;;;;;;5013016;28;20455;-66
2022/10/24 00:19:22;;;;;;;7.38;2.70;;;16.70;84.80;;;;;;5014381;28;20038;-66
2022/10/24 00:21:47;;;;;;;8.13;3.13;;;16.70;84.80;;;;;;5015493;28;20026;-66
2022/10/24 00:24:13;;;;;;;9.95;3.65;;;16.70;84.80;;;;;;5014379;28;20447;-66
2022/10/24 00:26:40;;;;;;;10.32;2.97;;;16.60;84.80;;;;;;5014096;28;20038;-66
2022/10/24 00:29:05;;;;;;;7.32;2.67;;;16.60;84.70;;;;;;5010036;28;20022;-66
2022/10/24 00:31:31;;;;;;;8.10;2.80;;;16.60;84.60;;;;;;5008504;28;20051;-66
2022/10/24 00:33:58;;;;;;;9.35;2.67;;;16.60;84.50;;;;;;4996736;28;20124;-66
2022/10/24 00:36:25;;;;;;;7.93;2.50;;;16.60;84.40;;;;;;5013574;28;20036;-66
2022/10/24 00:38:51;;;;;;;6.75;2.55;;;16.60;84.30;;;;;;5012801;28;20040;-66
2022/10/24 00:41:24;;;;;;;8.07;2.67;;;16.60;84.40;;;;;;5011780;28;20030;-66
2022/10/24 00:43:50;;;;;;;9.70;3.20;;;16.60;84.30;;;;;;5013726;28;20033;-66
2022/10/24 00:46:18;;;;;;;7.22;2.38;;;16.60;84.20;;;;;;5014724;28;20028;-66
2022/10/24 00:48:47;;;;;;;8.10;2.80;;;16.60;84.20;;;;;;5012625;28;20084;-66
2022/10/24 00:51:23;;;;;;;6.25;2.33;;;16.60;84.00;;;;;;5015039;28;20029;-66
2022/10/24 00:53:52;;;;;;;7.72;2.47;;;16.70;84.00;;;;;;5012557;28;20022;-66
2022/10/24 00:56:21;;;;;;;7.05;2.50;;;16.60;83.90;;;;;;5014872;28;20022;-66
2022/10/24 00:58:48;;;;;;;7.05;2.70;;;16.60;83.90;;;;;;5012464;28;20025;-66
2022/10/24 01:01:15;;;;;;;8.82;2.92;;;16.60;83.90;;;;;;5014103;28;20363;-66
2022/10/24 01:03:41;;;;;;;7.78;2.30;;;16.60;83.90;;;;;;5013963;28;20122;-66
2022/10/24 01:06:23;;;;;;;11.52;3.30;;;16.60;83.80;;;;;;5011104;28;20121;-66
2022/10/24 01:09:01;;;;;;;7.50;2.40;;;16.60;83.80;;;;;;5010953;28;20415;-66
2022/10/24 01:11:48;;;;;;;6.68;2.67;;;16.60;83.80;;;;;;5013855;28;20129;-66
2022/10/24 01:14:16;;;;;;;7.40;2.33;;;16.60;84.60;;;;;;5008370;28;20121;-66
2022/10/24 01:17:03;;;;;;;9.40;3.08;;;16.50;83.90;;;;;;5032835;28;20033;-66
2022/10/24 01:19:53;;;;;;;6.82;2.40;;;16.50;83.80;;;;;;5031016;28;20038;-66
2022/10/24 01:22:21;;;;;;;7.00;2.40;;;16.50;83.80;;;;;;5025329;28;20064;-66
2022/10/24 01:24:55;;;;;;;8.15;2.45;;;16.50;83.80;;;;;;5020504;28;20045;-66
2022/10/24 01:27:26;;;;;;;5.47;2.15;;;16.50;83.80;;;;;;5028407;28;20036;-66
2022/10/24 01:29:57;;;;;;;6.05;2.55;;;16.50;83.70;;;;;;5035754;28;20406;-66
2022/10/24 01:32:25;;;;;;;9.10;2.67;;;16.50;83.40;;;;;;5034898;28;20032;-66
2022/10/24 01:35:03;;;;;;;6.07;2.50;;;16.60;83.30;;;;;;5015418;28;20029;-66
2022/10/24 01:37:39;;;;;;;8.75;2.63;;;16.60;83.10;;;;;;5018787;28;20034;-66
2022/10/24 01:40:12;;;;;;;8.23;2.40;;;16.60;83.00;;;;;;5027572;28;20361;-66
2022/10/24 01:42:39;;;;;;;8.20;2.22;;;16.60;82.90;;;;;;5018187;28;20080;-66
2022/10/24 01:45:08;;;;;;;7.03;2.42;;;16.60;82.80;;;;;;5016495;28;20037;-66
2022/10/24 01:47:42;;;;;;;5.80;2.20;;;16.60;82.80;;;;;;5018024;28;20045;-66
2022/10/24 01:50:12;;;;;;;8.13;2.67;;;16.60;82.70;;;;;;5017069;28;20021;-66
2022/10/24 01:52:41;;;;;;;7.63;2.97;;;16.60;82.50;;;;;;5015893;28;20658;-66
2022/10/24 01:55:07;;;;;;;6.45;2.13;;;16.60;82.40;;;;;;5017019;28;20061;-66
2022/10/24 01:57:34;;;;;;;8.07;2.75;;;16.60;82.50;;;;;;5016961;28;20084;-66
2022/10/24 02:00:00;;;;;;;9.13;2.78;;;16.50;82.30;;;;;;5017548;28;20044;-66
2022/10/24 02:02:32;;;;;;;5.82;2.38;;;16.50;82.30;;;;;;5017364;28;20121;-66
2022/10/24 02:05:01;;;;;;;6.00;2.30;;;16.50;82.10;;;;;;5015362;28;20032;-66
2022/10/24 02:07:29;;;;;;;9.32;2.63;;;16.50;82.00;;;;;;5014623;28;20029;-66
2022/10/24 02:10:04;;;;;;;7.50;2.70;;;16.50;81.90;;;;;;5026281;28;20057;-66
2022/10/24 02:12:30;;;;;;;6.22;2.17;;;16.60;81.80;;;;;;5037405;28;20350;-66
2022/10/24 02:15:03;;;;;;;7.90;2.63;;;16.60;81.60;;;;;;5022469;28;20087;-66
2022/10/24 02:17:29;;;;;;;7.60;2.78;;;16.60;81.40;;;;;;5037147;28;20055;-66
2022/10/24 02:19:56;;;;;;;8.25;2.35;;;16.60;81.20;;;;;;5028817;28;20438;-66
2022/10/24 02:22:25;;;;;;;5.40;2.35;;;16.60;80.90;;;;;;5027164;28;20033;-66
2022/10/24 02:25:00;;;;;;;7.13;2.42;;;16.70;80.60;;;;;;5021249;28;20431;-66
2022/10/24 02:27:35;;;;;;;6.63;2.03;;;16.70;80.40;;;;;;5031186;28;20044;-66
2022/10/24 02:30:08;;;;;;;7.35;2.20;;;16.70;80.30;;;;;;5022609;28;20347;-66
2022/10/24 02:32:47;;;;;;;7.65;2.60;;;16.70;80.10;;;;;;5028537;28;20088;-66
2022/10/24 02:35:16;;;;;;;5.57;2.10;;;16.70;79.90;;;;;;5017827;28;20413;-66
2022/10/24 02:37:46;;;;;;;5.72;2.10;;;16.70;79.80;;;;;;5024264;28;20025;-66
2022/10/24 02:40:14;;;;;;;8.60;2.92;;;16.70;79.70;;;;;;5025030;28;20034;-66
2022/10/24 02:42:43;;;;;;;6.82;2.22;;;16.70;79.60;;;;;;5016072;28;20057;-66
2022/10/24 02:45:10;;;;;;;8.63;2.40;;;16.70;79.50;;;;;;5014144;28;20366;-66
2022/10/24 02:47:38;;;;;;;5.60;1.75;;;16.70;79.30;;;;;;5012024;28;20502;-66
2022/10/24 02:50:05;;;;;;;8.32;2.40;;;16.80;79.20;;;;;;5009521;28;20045;-66
2022/10/24 02:52:31;;;;;;;7.50;2.03;;;16.80;79.10;;;;;;5012786;28;20033;-66
2022/10/24 02:54:56;;;;;;;8.55;2.22;;;16.80;79.00;;;;;;5013880;28;20454;-66
2022/10/24 02:57:23;;;;;;;7.85;2.55;;;16.80;78.90;;;;;;5015168;28;20026;-66
2022/10/24 02:59:49;;;;;;;8.43;2.10;;;16.80;78.90;;;;;;5015531;28;20053;-66
2022/10/24 03:02:15;;;;;;;5.50;2.03;;;16.80;78.60;;;;;;5031361;28;20100;-66
2022/10/24 03:04:41;;;;;;;5.03;1.90;;;16.80;78.50;;;;;;5013180;28;20021;-66
2022/10/24 03:07:06;;;;;;;6.28;2.20;;;16.80;78.30;;;;;;5013324;28;20026;-66
2022/10/24 03:09:33;;;;;;;5.72;1.77;;;16.80;78.10;;;;;;5011284;28;20105;-66
2022/10/24 03:11:59;;;;;;;4.97;2.00;;;16.80;78.00;;;;;;5015443;28;20022;-66
2022/10/24 03:14:25;;;;;;;6.85;1.88;;;16.80;77.90;;;;;;5017384;28;20036;-66
2022/10/24 03:16:50;;;;;;;6.60;1.80;;;16.80;77.80;;;;;;5014963;28;20029;-66
2022/10/24 03:19:16;;;;;;;8.23;1.70;;;16.80;77.70;;;;;;5016932;28;410767;-66
2022/10/24 03:21:42;;;;;;;5.82;2.00;;;16.80;77.60;;;;;;5015507;28;20371;-66
2022/10/24 03:24:07;;;;;;;5.90;1.67;;;16.80;77.40;;;;;;5018372;28;20473;-66
2022/10/24 03:26:33;;;;;;;5.78;1.95;;;16.80;77.30;;;;;;5012093;28;20355;-66
2022/10/24 03:28:59;;;;;;;7.20;1.92;;;16.80;77.20;;;;;;5009236;28;20040;-66
2022/10/24 03:31:25;;;;;;;7.55;2.13;;;16.80;77.10;;;;;;5015527;28;20014;-66
2022/10/24 03:33:50;;;;;;;8.85;2.40;;;16.80;77.00;;;;;;5017796;28;20090;-66
2022/10/24 03:36:17;;;;;;;6.68;2.03;;;16.80;76.90;;;;;;5015423;28;20037;-66
2022/10/24 03:38:42;;;;;;;7.07;1.90;;;16.80;76.80;;;;;;5018507;28;20083;-66
2022/10/24 03:41:08;;;;;;;5.93;1.80;;;16.80;76.80;;;;;;5018884;28;20123;-66
2022/10/24 03:43:34;;;;;;;7.65;2.05;;;16.80;76.80;;;;;;5014467;28;20030;-69
2022/10/24 03:45:59;;;;;;;4.97;1.63;;;16.80;76.70;;;;;;5003002;28;20035;-66
2022/10/24 03:48:25;;;;;;;3.58;1.50;;;16.80;76.60;;;;;;5011634;28;20026;-66
2022/10/24 03:50:51;;;;;;;5.40;1.50;;;16.80;76.40;;;;;;5000811;28;20118;-66
2022/10/24 03:53:17;;;;;;;4.55;1.70;;;16.80;77.00;;;;;;4997252;28;20038;-66
2022/10/24 03:55:42;;;;;;;7.05;1.88;;;16.80;76.30;;;;;;5013849;28;20022;-66
2022/10/24 03:58:08;;;;;;;9.30;1.70;;;16.80;76.30;;;;;;5014033;28;20088;-66
2022/10/24 04:00:38;;;;;;;5.85;1.67;;;16.80;76.30;;;;;;5011094;28;20092;-66
2022/10/24 04:03:05;;;;;;;8.13;1.77;;;16.80;76.30;;;;;;4995071;28;20038;-66
2022/10/24 04:05:32;;;;;;;3.55;1.73;;;16.70;76.20;;;;;;5016662;28;20041;-66
2022/10/24 04:07:58;;;;;;;8.05;2.08;;;16.70;76.10;;;;;;4998331;28;20026;-66
2022/10/24 04:10:23;;;;;;;3.67;1.63;;;16.70;76.00;;;;;;5009354;28;20089;-66
2022/10/24 04:12:49;;;;;;;5.00;1.48;;;16.70;75.90;;;;;;4997916;28;20022;-66
2022/10/24 04:15:14;;;;;;;5.47;1.67;;;16.70;75.80;;;;;;5009873;28;20030;-66
2022/10/24 04:17:40;;;;;;;5.80;1.65;;;16.80;75.70;;;;;;4999235;28;20049;-66
2022/10/24 04:20:06;;;;;;;4.43;1.50;;;16.70;75.50;;;;;;4994327;28;20065;-66
2022/10/24 04:22:32;;;;;;;3.83;1.42;;;16.80;75.50;;;;;;5011291;28;20121;-66
2022/10/24 04:24:58;;;;;;;5.40;1.33;;;16.80;75.40;;;;;;5005373;28;20110;-66
2022/10/24 04:27:24;;;;;;;4.22;1.55;;;16.80;75.30;;;;;;4997618;28;20501;-66
2022/10/24 04:29:49;;;;;;;5.75;1.40;;;16.80;75.20;;;;;;5000414;28;20026;-66
2022/10/24 04:32:15;;;;;;;5.50;1.63;;;16.80;75.20;;;;;;4996162;28;20113;-66
2022/10/24 04:34:41;;;;;;;3.65;1.40;;;16.80;75.20;;;;;;5004183;28;20065;-66
2022/10/24 04:37:06;;;;;;;4.88;1.83;;;16.80;75.20;;;;;;4998544;28;20427;-66
2022/10/24 04:39:32;;;;;;;4.45;1.50;;;16.80;75.20;;;;;;5010260;28;20025;-66
2022/10/24 04:41:58;;;;;;;4.25;1.45;;;16.80;75.30;;;;;;5014538;28;20030;-66
2022/10/24 04:44:23;;;;;;;3.95;1.50;;;16.70;75.20;;;;;;5014532;28;20033;-66
2022/10/24 04:46:49;;;;;;;5.85;1.70;;;16.70;75.90;;;;;;5013335;28;20030;-66
2022/10/24 04:49:15;;;;;;;6.60;1.50;;;16.70;75.20;;;;;;5015174;28;20041;-66
2022/10/24 04:51:41;;;;;;;8.63;1.85;;;16.70;75.20;;;;;;5014237;28;20026;-66
2022/10/24 04:54:07;;;;;;;8.40;1.70;;;16.60;75.20;;;;;;5014083;28;20034;-66
2022/10/24 04:56:33;;;;;;;5.38;1.73;;;16.70;75.20;;;;;;5014126;28;20061;-66
2022/10/24 04:59:00;;;;;;;4.70;1.55;;;16.70;75.80;;;;;;5012179;28;20390;-66
2022/10/24 05:01:25;;;;;;;6.07;1.80;;;16.70;75.20;;;;;;5011684;28;20458;-66
2022/10/24 05:03:51;;;;;;;6.10;1.63;;;16.70;75.20;;;;;;5011039;28;20087;-66
2022/10/24 05:06:17;;;;;;;7.13;1.95;;;16.70;75.20;;;;;;5012133;28;20527;-66
2022/10/24 05:08:42;;;;;;;5.68;1.48;;;16.70;75.20;;;;;;5012098;28;20022;-66
2022/10/24 05:11:10;;;;;;;7.30;1.90;;;16.70;75.20;;;;;;5012316;28;20041;-67
2022/10/24 05:13:37;;;;;;;6.38;1.50;;;16.70;75.10;;;;;;5011413;28;20030;-67
2022/10/24 05:16:03;;;;;;;9.00;1.90;;;16.70;75.00;;;;;;5013954;28;20125;-67
2022/10/24 05:18:29;;;;;;;5.20;1.63;;;16.60;75.00;;;;;;5018125;28;20061;-67
2022/10/24 05:20:56;;;;;;;6.13;1.73;;;16.70;75.10;;;;;;5028655;28;20029;-67
2022/10/24 05:23:22;;;;;;;5.63;1.70;;;16.70;75.00;;;;;;5014594;28;20044;-67
2022/10/24 05:25:48;;;;;;;6.40;1.80;;;16.70;75.00;;;;;;5015116;28;20437;-67
2022/10/24 05:28:13;;;;;;;8.35;1.80;;;16.70;75.00;;;;;;5015327;28;20454;-67
2022/10/24 05:30:39;;;;;;;7.55;1.83;;;16.70;75.00;;;;;;5010456;28;20033;-67
2022/10/24 05:33:04;;;;;;;4.60;1.63;;;16.70;74.90;;;;;;5013309;28;20427;-67
2022/10/24 05:35:30;;;;;;;3.60;1.40;;;16.70;74.80;;;;;;5030052;28;20041;-67
2022/10/24 05:37:56;;;;;;;7.80;1.42;;;16.70;74.70;;;;;;5011589;28;20030;-67
2022/10/24 05:40:21;;;;;;;8.40;1.52;;;16.70;74.70;;;;;;5014459;28;20026;-67
2022/10/24 05:42:48;;;;;;;5.05;1.60;;;16.70;74.60;;;;;;5010823;28;20085;-67
2022/10/24 05:45:14;;;;;;;8.50;1.73;;;16.70;74.60;;;;;;5010756;28;20118;-66
2022/10/24 05:47:40;;;;;;;8.10;2.10;;;16.70;74.50;;;;;;5014427;28;20034;-67
2022/10/24 05:50:06;;;;;;;8.23;1.63;;;16.70;74.50;;;;;;5014282;28;20040;-67
2022/10/24 05:52:32;;;;;;;4.55;1.80;;;16.70;74.50;;;;;;5014078;28;20069;-67
2022/10/24 05:54:57;;;;;;;9.43;1.67;;;16.70;74.50;;;;;;5013850;28;20030;-67
2022/10/24 05:57:24;;;;;;;7.18;2.05;;;16.70;74.50;;;;;;5014417;28;20049;-67
2022/10/24 05:59:49;;;;;;;7.28;1.50;;;16.70;74.50;;;;;;5015271;28;20034;-67
2022/10/24 06:02:19;;;;;;;5.68;1.70;;;16.70;74.50;;;;;;4996361;28;20026;-67
2022/10/24 06:04:45;;;;;;;6.13;1.60;;;16.70;74.60;;;;;;5014395;28;20034;-67
2022/10/24 06:07:11;;;;;;;6.20;1.48;;;16.70;74.60;;;;;;5014005;28;20491;-68
2022/10/24 06:09:39;;;;;;;3.80;1.52;;;16.70;74.50;;;;;;5016394;28;20031;-67
2022/10/24 06:12:07;;;;;;;8.02;1.85;;;16.70;74.50;;;;;;5022017;28;20037;-67
2022/10/24 06:14:33;;;;;;;7.68;1.58;;;16.80;74.50;;;;;;5017359;28;20057;-66
2022/10/24 06:16:58;;;;;;;6.95;2.00;;;16.70;74.50;;;;;;5012418;28;20075;-66
2022/10/24 06:19:24;;;;;;;9.30;1.92;;;16.70;74.50;;;;;;5015849;28;20455;-66
2022/10/24 06:21:50;;;;;;;6.35;1.92;;;16.80;74.50;;;;;;5017345;28;20030;-66
2022/10/24 06:24:15;;;;;;;5.22;1.90;;;16.80;74.50;;;;;;5019067;28;20030;-66
2022/10/24 06:26:41;;;;;;;7.22;1.50;;;16.80;74.50;;;;;;5032364;28;20442;-66
2022/10/24 06:29:07;;;;;;;8.82;2.00;;;16.70;74.50;;;;;;5015641;28;20018;-66
2022/10/24 06:31:34;;;;;;;7.38;1.55;;;16.70;74.50;;;;;;5015278;28;20403;-66
2022/10/24 06:34:00;;;;;;;5.55;1.52;;;16.70;74.50;;;;;;5015182;28;20034;-66
2022/10/24 06:36:26;;;;;;;5.72;1.38;;;16.70;74.50;;;;;;5018754;28;20029;-66
2022/10/24 06:38:53;;;;;;;6.65;1.90;;;16.80;74.60;;;;;;5021947;28;20406;-66
2022/10/24 06:41:19;;;;;;;5.82;1.75;;;16.80;74.50;;;;;;5016450;28;20351;-66
2022/10/24 06:43:45;;;;;;;5.75;1.77;;;16.80;74.50;;;;;;5018970;28;20021;-66
2022/10/24 06:46:14;;;;;;;9.13;1.88;;;16.80;74.50;;;;;;5017648;28;20022;-66
2022/10/24 06:48:39;;;;;;;4.35;1.90;;;16.80;74.40;;;;;;5017307;28;20029;-66
2022/10/24 06:51:05;;;;;;;4.45;1.25;;;16.80;74.40;;;;;;5016320;28;20025;-66
2022/10/24 06:53:31;;;;;;;6.88;1.52;;;16.90;74.50;;;;;;5015144;28;20091;-66
2022/10/24 06:56:02;;;;;;;8.50;1.90;;;16.90;74.40;;;;;;5016730;28;20430;-67
2022/10/24 06:58:32;;;;;;;7.05;2.00;;;16.90;74.30;;;;;;5014689;28;20080;-66
2022/10/24 07:00:58;;;;;;;5.43;1.58;;;16.90;74.30;;;;;;5016310;28;20018;-66
2022/10/24 07:03:23;;;;;;;7.57;2.10;;;16.90;74.30;;;;;;5031313;28;20418;-66
2022/10/24 07:05:49;;;;;;;7.65;1.98;;;16.90;74.30;;;;;;5017833;28;20443;-66
2022/10/24 07:08:15;;;;;;;9.75;2.10;;;16.90;74.40;;;;;;5014632;28;20374;-66
2022/10/24 07:10:40;;;;;;;7.47;1.75;;;16.90;74.40;;;;;;5016078;28;20108;-66
2022/10/24 07:13:06;;;;;;;8.13;1.67;;;16.90;74.40;;;;;;5016390;28;20034;-66
2022/10/24 07:15:32;;;;;;;9.90;2.33;;;16.90;74.40;;;;;;5016560;28;20037;-65
2022/10/24 07:17:57;;;;;;;8.65;1.75;;;16.90;74.40;;;;;;5015889;28;20041;-66
2022/10/24 07:20:23;;;;;;;9.43;1.95;;;17.00;74.50;;;;;;5014761;28;20034;-66
2022/10/24 07:22:48;;;;;;;8.05;1.88;;;17.00;74.40;;;;;;5011783;28;20030;-66
2022/10/24 07:25:14;;;;;;;7.95;1.88;;;17.10;74.40;;;;;;5012200;28;20056;-66
2022/10/24 07:27:40;;;;;;;12.88;2.08;;;17.10;74.50;;;;;;5032006;28;20092;-66
2022/10/24 07:30:07;;;;;;;8.52;2.35;;;17.10;74.40;;;;;;5015326;28;20052;-66
2022/10/24 07:32:33;;;;;;;7.10;1.65;;;17.10;74.40;;;;;;5016497;28;20022;-66
2022/10/24 07:34:59;;;;;;;6.05;1.80;;;17.10;74.30;;;;;;5015483;28;20025;-66
2022/10/24 07:37:25;;;;;;;10.60;1.77;;;17.10;74.30;;;;;;5012028;28;20526;-66
2022/10/24 07:39:50;;;;;;;6.65;1.60;;;17.20;74.30;;;;;;5004546;28;20064;-66
2022/10/24 07:42:17;;;;;;;8.13;1.80;;;17.20;74.30;;;;;;5016166;28;20029;-66
2022/10/24 07:44:43;;;;;;;8.48;1.88;;;17.20;74.20;;;;;;5015925;28;20026;-66
2022/10/24 07:47:10;;;;;;;7.18;2.00;;;17.20;74.20;;;;;;5014835;28;20052;-66
2022/10/24 07:49:37;;;;;;;7.63;1.92;;;17.20;74.20;;;;;;5014729;28;20095;-65
2022/10/24 07:52:03;;;;;;;15.10;2.20;;;17.30;74.20;;;;;;5015461;28;20026;-65
2022/10/24 07:54:29;;;;;;;15.07;2.40;;;17.30;74.20;;;;;;5012271;28;20095;-66
2022/10/24 07:56:54;;;;;;;7.68;1.88;;;17.30;74.40;;;;;;5014195;28;20057;-66
2022/10/24 07:59:20;;;;;;;8.45;1.92;;;17.30;74.50;;;;;;5013623;28;20037;-66
2022/10/24 08:01:45;;;;;;;5.93;1.70;;;17.30;74.70;;;;;;5014669;28;20033;-66
2022/10/24 08:04:12;;;;;;;11.75;2.15;;;17.40;74.70;;;;;;5013777;28;20033;-66
2022/10/24 08:06:41;;;;;;;8.40;1.63;;;17.40;74.70;;;;;;5011107;28;20030;-66
2022/10/24 08:09:07;;;;;;;8.82;1.98;;;17.40;74.70;;;;;;5010497;28;20033;-66
2022/10/24 08:11:33;;;;;;;6.60;1.77;;;17.40;74.60;;;;;;4995470;28;20018;-66
2022/10/24 08:14:01;;;;;;;6.47;2.00;;;17.40;74.60;;;;;;5009541;28;20535;-66
2022/10/24 08:16:27;;;;;;;9.70;2.05;;;17.40;74.60;;;;;;5012375;28;20033;-66
2022/10/24 08:18:55;;;;;;;7.60;1.48;;;17.40;74.40;;;;;;4987868;28;20383;-66
2022/10/24 08:21:21;;;;;;;7.75;2.03;;;17.50;74.40;;;;;;5014219;28;20034;-66
2022/10/24 08:23:49;;;;;;;7.45;2.05;;;17.50;74.30;;;;;;5016180;28;20415;-66
2022/10/24 08:26:17;;;;;;;7.20;1.70;;;17.50;74.10;;;;;;5013301;28;20478;-66
2022/10/24 08:28:45;;;;;;;6.28;1.17;;;17.60;74.10;;;;;;5014719;28;20076;-66
2022/10/24 08:31:13;;;;;;;7.10;1.67;;;17.60;73.80;;;;;;5013716;28;20033;-66
2022/10/24 08:33:39;;;;;;;6.55;1.50;;;17.60;73.60;;;;;;5015051;28;20033;-66
2022/10/24 08:36:20;;;;;;;6.00;1.30;;;17.70;73.50;;;;;;5012364;28;20117;-66
2022/10/24 08:38:46;;;;;;;;;;;17.80;73.10;;;;;;5005804;28;20362;-66
2022/10/24 08:41:18;;;;;;;5.88;1.48;;;17.80;73.10;;;;;;5013588;28;19909;-66
2022/10/24 08:43:43;;;;;;;9.07;1.58;;;17.80;72.80;;;;;;5014776;28;20033;-66
2022/10/24 08:46:18;;;;;;;6.28;1.40;;;18.00;72.80;;;;;;5013953;28;20018;-66
2022/10/24 08:49:10;;;;;;;7.55;1.40;;;18.10;72.50;;;;;;5013042;28;20056;-66
2022/10/24 08:51:45;;;;;;;6.45;0.95;;;18.10;72.20;;;;;;5014267;28;20102;-66
2022/10/24 08:54:22;;;;;;;8.93;1.40;;;18.20;72.10;;;;;;5017542;28;20034;-66
2022/10/24 08:56:50;;;;;;;5.80;1.73;;;18.30;72.00;;;;;;4998803;28;20036;-66
2022/10/24 08:59:15;;;;;;;6.30;1.33;;;18.30;71.70;;;;;;5025253;28;20030;-66
2022/10/24 09:01:51;;;;;;;6.68;1.50;;;18.50;71.50;;;;;;5021309;28;20373;-66
2022/10/24 09:04:20;;;;;;;5.93;1.25;;;18.50;71.20;;;;;;5034466;28;20129;-66
2022/10/24 09:06:50;;;;;;;6.40;1.30;;;18.70;70.90;;;;;;5019845;28;20393;-67
2022/10/24 09:09:32;;;;;;;5.35;1.48;;;18.80;70.60;;;;;;5027403;28;20105;-66
2022/10/24 09:12:02;;;;;;;6.57;1.67;;;18.90;70.10;;;;;;5018394;28;20350;-66
2022/10/24 09:14:35;;;;;;;7.40;1.65;;;19.00;69.80;;;;;;5028227;28;20049;-66
2022/10/24 09:17:11;;;;;;;7.90;1.45;;;19.10;69.40;;;;;;5009684;28;20050;-66
2022/10/24 09:19:37;;;;;;;5.32;1.10;;;19.00;69.20;;;;;;5032782;28;20056;-66
2022/10/24 09:22:04;;;;;;;5.38;1.20;;;19.00;69.40;;;;;;5016503;28;20033;-67
2022/10/24 09:24:57;;;;;;;6.80;1.33;;;19.00;69.30;;;;;;5023240;28;20046;-66
2022/10/24 09:27:37;;;;;;;7.15;1.48;;;19.00;69.10;;;;;;5018083;28;20116;-66
2022/10/24 09:30:05;;;;;;;7.07;1.38;;;19.10;69.00;;;;;;5015109;28;20033;-67
2022/10/24 09:32:34;;;;;;;6.70;1.40;;;19.20;68.70;;;;;;5030303;28;20060;-67
2022/10/24 09:35:10;;;;;;;5.45;1.25;;;19.20;68.20;;;;;;5014522;28;20026;-67
2022/10/24 09:37:39;;;;;;;5.53;1.50;;;19.20;68.10;;;;;;5017628;28;20076;-66
2022/10/24 09:40:17;;;;;;;6.68;1.20;;;19.30;67.90;;;;;;5030785;28;20060;-65
2022/10/24 09:42:59;;;;;;;3.97;1.10;;;19.40;67.60;;;;;;5020502;28;20064;-65
2022/10/24 09:45:42;;;;;;;;;;;19.60;67.50;;;;;;5032980;28;20045;-65
2022/10/24 09:48:21;;;;;;;7.95;1.30;;;19.60;67.20;;;;;;5026121;28;19967;-65
2022/10/24 09:50:48;;;;;;;5.50;1.27;;;19.70;67.10;;;;;;5015913;28;20056;-65
2022/10/24 09:53:26;;;;;;;7.63;1.10;;;19.70;66.90;;;;;;5006388;28;20093;-66
2022/10/24 09:55:55;;;;;;;5.45;1.17;;;19.80;66.70;;;;;;5025081;28;20045;-66
2022/10/24 09:58:31;;;;;;;5.32;1.25;;;19.80;66.60;;;;;;5032673;28;20469;-66
2022/10/24 10:01:15;;;;;;;7.03;1.40;;;19.70;66.50;;;;;;5020036;28;20068;-65
2022/10/24 10:03:41;;;;;;;3.45;1.10;;;19.60;66.70;;;;;;5015883;28;20447;-65
2022/10/24 10:06:17;;;;;;;4.97;1.30;;;19.50;67.00;;;;;;5016868;28;20168;-66
2022/10/24 10:08:49;;;;;;;7.85;1.40;;;19.40;67.00;;;;;;5015891;28;20022;-65
2022/10/24 10:11:22;;;;;;;6.63;1.45;;;19.20;67.20;;;;;;5013685;28;20036;-65
2022/10/24 10:13:52;;;;;;;3.47;1.00;;;19.10;67.70;;;;;;5031075;28;20034;-65
2022/10/24 10:16:38;;;;;;;5.22;1.20;;;19.00;67.90;;;;;;5015700;28;20378;-65
2022/10/24 10:19:14;;;;;;;3.83;1.20;;;18.90;67.90;;;;;;5017160;28;20042;-65
2022/10/24 10:22:08;;;;;;;5.43;1.17;;;18.90;68.00;;;;;;5017522;28;20087;-65
2022/10/24 10:24:34;;;;;;;5.47;1.48;;;19.00;67.80;;;;;;5017817;28;20473;-65
2022/10/24 10:27:00;;;;;;;4.68;1.33;;;18.90;67.80;;;;;;5015946;28;20029;-66
2022/10/24 10:29:26;;;;;;;3.33;1.08;;;19.00;67.80;;;;;;5018187;28;20045;-66
2022/10/24 10:32:02;;;;;;;3.85;1.13;;;19.00;67.50;;;;;;5027129;28;20018;-66
2022/10/24 10:34:44;;;;;;;6.25;1.50;;;19.00;67.20;;;;;;5027583;28;20104;-66
2022/10/24 10:37:30;;;;;;;3.55;1.13;;;19.00;67.30;;;;;;5020859;28;20041;-65
2022/10/24 10:40:15;;;;;;;5.28;1.45;;;19.00;67.40;;;;;;5032170;28;20022;-65
2022/10/24 10:42:56;;;;;;;10.60;1.42;;;18.90;67.60;;;;;;5014342;28;20370;-65
2022/10/24 10:45:33;;;;;;;3.25;1.08;;;19.00;67.60;;;;;;5016251;28;20117;-65
2022/10/24 10:48:42;;;;;;;7.75;1.48;;;19.10;67.40;;;;;;5014388;28;20041;-65
2022/10/24 10:51:42;;;;;;;2.95;0.90;;;19.10;67.30;;;;;;5016166;28;20041;-66
2022/10/24 10:54:32;;;;;;;4.75;1.20;;;19.10;67.30;;;;;;5028513;28;20034;-65
2022/10/24 10:57:12;;;;;;;5.20;1.30;;;19.10;67.40;;;;;;5015431;28;20034;-65
2022/10/24 10:59:40;;;;;;;10.25;1.58;;;19.10;67.20;;;;;;5004140;28;20042;-66
2022/10/24 11:02:27;;;;;;;10.07;1.67;;;19.20;67.30;;;;;;5021643;28;20549;-65
2022/10/24 11:05:04;;;;;;;5.40;1.20;;;19.10;67.10;;;;;;5031368;28;20332;-66
2022/10/24 11:07:41;;;;;;;5.72;1.30;;;19.20;67.00;;;;;;5030875;28;20028;-66
2022/10/24 11:10:12;;;;;;;4.25;1.27;;;19.00;67.10;;;;;;5032697;28;20036;-66
2022/10/24 11:12:42;;;;;;;18.25;2.33;;;19.00;67.10;;;;;;5017385;28;20087;-66
2022/10/24 11:15:17;;;;;;;7.38;1.80;;;19.00;67.30;;;;;;5033071;28;20442;-65
2022/10/24 11:18:06;;;;;;;5.03;1.35;;;19.00;67.30;;;;;;5008842;28;20049;-66
2022/10/24 11:20:37;;;;;;;5.28;1.27;;;19.20;67.10;;;;;;5016822;28;20026;-65
2022/10/24 11:23:11;;;;;;;;;;;19.30;66.90;;;;;;5017130;28;20040;-66
2022/10/24 11:25:47;;;;;;;12.43;2.25;;;19.40;66.90;;;;;;5035523;28;19936;-66
2022/10/24 11:28:25;;;;;;;4.57;1.40;;;19.50;66.80;;;;;;5024230;28;20449;-65
2022/10/24 11:31:16;;;;;;;6.00;1.30;;;19.60;66.80;;;;;;5015415;28;20425;-66
2022/10/24 11:33:48;;;;;;;6.10;1.20;;;19.60;66.70;;;;;;5017592;28;20451;-65
2022/10/24 11:36:18;;;;;;;5.57;1.73;;;19.50;66.70;;;;;;5009348;28;20033;-66
2022/10/24 11:38:56;;;;;;;7.63;1.67;;;19.40;66.80;;;;;;5019204;28;20033;-66
2022/10/24 11:41:33;;;;;;;4.90;1.02;;;19.40;66.90;;;;;;5016111;28;20034;-66
2022/10/24 11:44:09;;;;;;;22.63;1.80;;;19.30;66.90;;;;;;5014966;28;20113;-66
2022/10/24 11:46:40;;;;;;;4.28;1.08;;;19.30;66.80;;;;;;5014791;28;20135;-66
2022/10/24 11:49:09;;;;;;;;;;;19.30;66.80;;;;;;5015637;28;20030;-66
2022/10/24 11:51:41;;;;;;;4.63;1.23;;;19.30;67.00;;;;;;5014797;28;19963;-65
2022/10/24 11:54:22;;;;;;;4.95;1.27;;;19.20;66.80;;;;;;5010539;28;20033;-66
2022/10/24 11:56:57;;;;;;;8.35;1.20;;;19.20;66.80;;;;;;5009429;28;20121;-65
2022/10/24 11:59:25;;;;;;;3.20;1.05;;;19.10;66.90;;;;;;5016057;28;20113;-65
2022/10/24 12:01:53;;;;;;;4.07;1.10;;;19.00;67.20;;;;;;5015621;28;20040;-65
2022/10/24 12:04:37;;;;;;;2.72;1.10;;;18.90;67.30;;;;;;5013495;28;20084;-65
2022/10/24 12:07:30;;;;;;;3.70;1.02;;;18.90;67.60;;;;;;5014371;28;20045;-65
2022/10/24 12:10:28;;;;;;;6.53;1.33;;;18.90;67.70;;;;;;4998944;28;20101;-65
2022/10/24 12:13:28;;;;;;;5.53;1.10;;;19.00;67.70;;;;;;5014775;28;20145;-65
2022/10/24 12:16:08;;;;;;;5.80;1.52;;;19.00;67.80;;;;;;5015540;28;20552;-65
2022/10/24 12:18:58;;;;;;;11.70;1.63;;;19.00;68.50;;;;;;5013105;28;20109;-65
2022/10/24 12:21:27;;;;;;;6.15;1.23;;;19.00;68.00;;;;;;4999785;28;20045;-65
2022/10/24 12:23:55;;;;;;;6.13;1.73;;;19.00;67.90;;;;;;5029619;28;20029;-65
2022/10/24 12:26:27;;;;;;;5.70;1.50;;;19.00;67.90;;;;;;5014875;28;20469;-65
2022/10/24 12:28:58;;;;;;;4.43;1.33;;;19.00;68.00;;;;;;5012206;28;20037;-66
2022/10/24 12:31:35;;;;;;;9.45;1.33;;;19.00;68.00;;;;;;5014656;28;20075;-66
2022/10/24 12:34:39;;;;;;;5.28;1.48;;;19.10;68.20;;;;;;5014900;28;20028;-65
2022/10/24 12:37:10;;;;;;;6.22;1.63;;;19.00;68.20;;;;;;5015913;28;20158;-65
2022/10/24 12:39:41;;;;;;;6.65;1.50;;;19.00;68.30;;;;;;5020241;28;20109;-65
2022/10/24 12:42:35;;;;;;;5.22;1.40;;;19.00;68.20;;;;;;4999567;28;20363;-65
2022/10/24 12:45:01;;;;;;;6.07;1.55;;;19.00;68.30;;;;;;4990598;28;20061;-65
2022/10/24 12:47:37;;;;;;;6.95;1.80;;;18.90;68.40;;;;;;4987510;28;20063;-65
2022/10/24 12:50:21;;;;;;;6.40;1.10;;;18.90;68.60;;;;;;4956695;28;20467;-65
2022/10/24 12:52:46;;;;;;;6.05;1.58;;;18.90;68.80;;;;;;4991568;28;20034;-65
2022/10/24 12:55:36;;;;;;;6.25;1.60;;;18.80;69.00;;;;;;4991624;28;20034;-65
2022/10/24 12:58:20;;;;;;;4.28;1.20;;;18.80;69.30;;;;;;4990853;28;20046;-64
2022/10/24 13:00:57;;;;;;;7.28;1.70;;;18.70;69.50;;;;;;4987968;28;20038;-65
2022/10/24 13:03:44;;;;;;;5.40;1.40;;;18.70;69.70;;;;;;4993039;28;20048;-65
2022/10/24 13:06:19;;;;;;;4.95;1.27;;;18.70;69.80;;;;;;4988120;28;20495;-65